Time;durP1;ratioP1;P1;durP2;ratioP2;P2;SDS_P1;SDS_P2;PMS_P1;PMS_P2;Temp;Humidity;BMP_temperature;BMP_pressure;BME280_temperature;BME280_humidity;BME280_pressure;Samples;Min_cycle;Max_cycle;Signal;HPM_P1;HPM_P2
2022/05/13 00:01:41;;;;;;;3.03;2.73;;;14.50;99.90;;;-141.84;56.24;18807.94;5114205;28;20222;-55
2022/05/13 00:04:10;;;;;;;3.20;2.87;;;14.40;99.90;;;-141.84;57.00;18791.69;5109093;28;20231;-53
2022/05/13 00:06:38;;;;;;;4.23;2.70;;;14.30;99.90;;;-141.84;57.61;18742.94;5114828;28;20196;-56
2022/05/13 00:09:08;;;;;;;3.73;2.80;;;14.20;99.90;;;-141.84;57.31;18753.09;5114119;28;20276;-58
2022/05/13 00:11:36;;;;;;;5.23;2.77;;;14.10;99.90;;;-141.84;57.50;18765.28;5114268;28;20227;-50
2022/05/13 00:14:05;;;;;;;3.10;2.80;;;14.10;99.90;;;-141.84;56.84;18753.09;5113858;28;20225;-52
2022/05/13 00:16:34;;;;;;;3.63;2.80;;;14.10;99.90;;;-141.84;57.02;18785.59;5113708;28;20238;-53
2022/05/13 00:19:03;;;;;;;4.60;3.00;;;14.10;99.90;;;-141.84;58.14;18757.16;5114907;28;20377;-54
2022/05/13 00:21:32;;;;;;;3.23;2.87;;;14.10;99.90;;;-141.84;58.49;18712.47;5112741;28;20318;-53
2022/05/13 00:24:00;;;;;;;4.03;3.03;;;14.10;99.90;;;-141.84;58.99;18706.38;5113685;28;20223;-55
2022/05/13 00:26:29;;;;;;;4.50;2.83;;;14.10;99.90;;;-141.84;59.13;18724.66;5113750;28;20246;-52
2022/05/13 00:28:57;;;;;;;3.97;3.07;;;14.10;99.90;;;-141.84;59.15;18761.22;5113674;28;20229;-52
2022/05/13 00:31:25;;;;;;;2.80;2.60;;;14.10;99.90;;;-141.84;58.28;18710.44;5113637;28;20205;-50
2022/05/13 00:33:53;;;;;;;5.07;3.10;;;14.10;99.90;;;-141.84;57.98;18738.88;5114395;28;20195;-54
2022/05/13 00:36:22;;;;;;;3.50;3.10;;;14.10;99.90;;;-141.84;57.64;18740.91;5092917;28;20227;-51
2022/05/13 00:38:50;;;;;;;5.83;3.10;;;14.10;99.90;;;-141.84;57.59;18759.19;5092927;28;20777;-51
2022/05/13 00:41:18;;;;;;;4.43;2.87;;;14.10;99.90;;;-141.84;58.41;18726.69;5096733;28;20298;-53
2022/05/13 00:43:52;;;;;;;3.70;2.83;;;14.10;99.90;;;-141.84;59.61;18704.31;5113137;28;20225;-54
2022/05/13 00:46:22;;;;;;;3.27;2.73;;;14.00;99.90;;;-141.84;60.11;18675.88;5113582;28;20190;-55
2022/05/13 00:48:51;;;;;;;3.90;2.80;;;13.90;99.90;;;-141.84;60.51;18686.03;5114135;28;20238;-53
2022/05/13 00:51:26;;;;;;;3.70;3.00;;;13.90;99.90;;;-141.84;60.90;18679.94;5112916;28;20672;-54
2022/05/13 00:53:55;;;;;;;3.83;3.30;;;13.80;99.90;;;-141.84;59.99;18679.94;5113133;28;20222;-54
2022/05/13 00:56:24;;;;;;;3.83;3.27;;;13.80;99.90;;;-141.84;59.40;18690.09;5112930;28;20223;-57
2022/05/13 00:58:58;;;;;;;4.20;3.10;;;13.90;99.90;;;-141.84;60.44;18688.06;5112918;28;20781;-57
2022/05/13 01:01:26;;;;;;;5.03;3.13;;;13.80;99.90;;;-141.84;60.49;18663.69;5113371;28;20230;-56
2022/05/13 01:04:01;;;;;;;6.47;3.10;;;13.80;99.90;;;-141.84;61.41;18639.31;5108834;28;20619;-53
2022/05/13 01:06:30;;;;;;;3.57;3.07;;;13.70;99.90;;;-141.84;61.85;18659.63;5092515;28;20744;-53
2022/05/13 01:08:58;;;;;;;3.47;3.17;;;13.60;99.90;;;-141.84;62.39;18639.31;5092478;28;20270;-54
2022/05/13 01:11:35;;;;;;;4.73;3.50;;;13.60;99.90;;;-141.84;62.70;18623.06;5092857;28;20230;-52
2022/05/13 01:14:10;;;;;;;3.70;2.90;;;13.50;99.90;;;-141.84;61.90;18635.25;5092209;28;20303;-53
2022/05/13 01:19:20;;;;;;;5.33;3.40;;;13.50;99.90;;;-141.84;63.21;18590.56;5091386;28;20304;-56
2022/05/13 01:21:49;;;;;;;4.20;2.97;;;13.40;99.90;;;-141.84;63.96;18616.97;5092854;28;20220;-51
2022/05/13 01:24:19;;;;;;;5.47;3.00;;;13.40;99.90;;;-141.84;64.24;18602.75;5092145;28;20311;-54
2022/05/13 01:26:47;;;;;;;5.00;3.27;;;13.40;99.90;;;-141.84;62.65;18623.06;5099992;28;20306;-56
2022/05/13 01:29:15;;;;;;;3.70;3.20;;;13.50;99.90;;;-141.84;62.32;18631.19;5112371;28;20553;-54
2022/05/13 01:31:44;;;;;;;4.00;3.60;;;13.50;99.90;;;-141.84;63.12;18592.59;5112813;28;20222;-54
2022/05/13 01:34:14;;;;;;;5.77;3.40;;;13.50;99.90;;;-141.84;62.45;18653.53;5110275;28;20204;-54
2022/05/13 01:36:43;;;;;;;4.77;3.40;;;13.60;99.90;;;-141.84;62.11;18612.91;5092579;28;20292;-55
2022/05/13 01:39:12;;;;;;;4.00;3.47;;;13.50;99.90;;;-141.84;63.61;18588.53;5108471;28;20302;-53
2022/05/13 01:41:40;;;;;;;4.13;3.17;;;13.50;99.90;;;-141.84;64.19;18584.47;5112313;28;20223;-53
2022/05/13 01:44:08;;;;;;;3.87;3.43;;;13.40;99.90;;;-141.84;64.17;18572.25;5112200;28;20223;-52
2022/05/13 01:46:36;;;;;;;4.67;3.50;;;13.40;99.90;;;-141.84;63.76;18598.69;5112390;28;20219;-53
2022/05/13 01:49:05;;;;;;;4.47;3.17;;;13.30;99.90;;;-141.84;63.47;18596.66;5112688;28;20710;-54
2022/05/13 01:51:33;;;;;;;5.07;3.40;;;13.40;99.90;;;-141.84;63.99;18564.13;5112650;28;20225;-54
2022/05/13 01:54:01;;;;;;;3.50;3.20;;;13.30;99.90;;;-141.84;65.20;18574.28;5111783;28;20234;-51
2022/05/13 01:56:30;;;;;;;5.90;3.20;;;13.30;99.90;;;-141.84;64.27;18578.38;5111763;28;20774;-52
2022/05/13 01:58:58;;;;;;;5.53;3.60;;;13.30;99.90;;;-141.84;64.11;18590.56;5112354;28;20289;-55
2022/05/13 02:01:26;;;;;;;5.63;3.57;;;13.30;99.90;;;-141.84;65.02;18570.22;5112528;28;20238;-53
2022/05/13 02:03:54;;;;;;;4.57;3.73;;;13.30;99.90;;;-141.84;66.48;18517.41;5106773;28;20223;-54
2022/05/13 02:06:25;;;;;;;4.00;3.40;;;13.20;99.90;;;-141.84;65.98;18533.66;5091340;28;20224;-51
2022/05/13 02:08:56;;;;;;;5.67;3.73;;;13.20;99.90;;;-141.84;65.39;18558.03;5091310;28;20292;-53
2022/05/13 02:11:28;;;;;;;4.40;3.57;;;13.20;99.90;;;-141.84;63.96;18578.38;5091808;28;20227;-50
2022/05/13 02:13:57;;;;;;;3.93;3.53;;;13.20;99.90;;;-141.84;64.27;18596.66;5091134;28;20306;-56
2022/05/13 02:16:25;;;;;;;5.23;3.77;;;13.30;99.90;;;-141.84;65.40;18517.41;5091405;28;20323;-55
2022/05/13 02:18:54;;;;;;;4.10;3.60;;;13.10;99.90;;;-141.84;66.84;18497.09;5091609;28;20204;-53
2022/05/13 02:21:22;;;;;;;4.27;3.70;;;13.00;99.90;;;-141.84;66.62;18501.16;5091512;28;20706;-54
2022/05/13 02:23:50;;;;;;;7.40;3.90;;;13.00;99.90;;;-141.84;66.70;18478.81;5090740;28;20337;-56
2022/05/13 02:26:18;;;;;;;4.40;3.70;;;12.90;99.90;;;-141.84;67.04;18491.00;5094753;28;20243;-52
2022/05/13 02:28:47;;;;;;;4.73;3.83;;;12.90;99.90;;;-141.84;67.27;18509.28;5111394;28;20303;-51
2022/05/13 02:31:17;;;;;;;5.10;3.97;;;12.90;99.90;;;-141.84;67.12;18505.22;5112064;28;20199;-55
2022/05/13 02:33:46;;;;;;;5.33;3.93;;;12.90;99.90;;;-141.84;66.13;18503.19;5110966;28;20244;-53
2022/05/13 02:36:14;;;;;;;5.40;3.93;;;13.00;99.90;;;-141.84;67.50;18497.09;5111085;28;20234;-53
2022/05/13 02:38:42;;;;;;;4.57;4.00;;;12.90;99.90;;;-141.84;68.16;18478.81;5110951;28;20223;-55
2022/05/13 02:41:14;;;;;;;6.00;3.83;;;12.90;99.90;;;-141.84;68.87;18468.66;5111523;28;20238;-55
2022/05/13 02:43:46;;;;;;;7.27;3.80;;;12.80;99.90;;;-141.84;67.93;18488.97;5111007;28;20231;-53
2022/05/13 02:46:18;;;;;;;6.50;4.27;;;12.80;99.90;;;-141.84;68.15;18476.78;5111179;28;20278;-55
2022/05/13 02:48:47;;;;;;;4.10;3.80;;;12.90;99.90;;;-141.84;68.57;18456.47;5111326;28;20590;-53
2022/05/13 02:51:17;;;;;;;7.27;4.33;;;12.90;99.90;;;-141.84;69.14;18454.44;5111331;28;20223;-55
2022/05/13 02:53:46;;;;;;;4.70;3.70;;;12.90;99.90;;;-141.84;69.07;18448.34;5110677;28;20227;-52
2022/05/13 02:56:15;;;;;;;5.53;3.93;;;12.90;99.90;;;-141.84;69.93;18432.09;5111008;28;20219;-54
2022/05/13 02:58:45;;;;;;;4.80;3.90;;;12.90;99.90;;;-141.84;69.29;18438.19;5110747;28;20231;-54
2022/05/13 03:01:17;;;;;;;6.33;4.00;;;13.00;99.90;;;-141.84;70.14;18484.91;5111241;28;20200;-52
2022/05/13 03:03:48;;;;;;;4.93;4.30;;;13.00;99.90;;;-141.84;69.87;18452.41;5107360;28;20204;-56
2022/05/13 03:06:18;;;;;;;4.13;3.80;;;13.00;99.90;;;-141.84;70.38;18430.06;5110239;28;20227;-51
2022/05/13 03:08:46;;;;;;;4.83;4.13;;;13.00;99.90;;;-141.84;67.82;18497.09;5110661;28;20561;-55
2022/05/13 03:11:16;;;;;;;5.50;3.60;;;13.10;99.90;;;-141.84;68.01;18454.44;5111218;28;20254;-51
2022/05/13 03:13:44;;;;;;;4.40;4.00;;;13.10;99.90;;;-141.84;68.61;18478.81;5110361;28;20215;-55
2022/05/13 03:16:19;;;;;;;4.00;3.70;;;13.10;99.90;;;-141.84;68.54;18462.56;5110556;28;20337;-54
2022/05/13 03:18:50;;;;;;;5.67;4.10;;;13.00;99.90;;;-141.84;68.74;18438.19;5111090;28;20639;-54
2022/05/13 03:21:17;;;;;;;6.03;4.10;;;13.00;99.90;;;-141.84;69.45;18425.97;5111337;28;20219;-52
2022/05/13 03:23:46;;;;;;;5.07;3.93;;;13.00;99.90;;;-141.84;70.60;18403.63;5110408;28;20258;-50
2022/05/13 03:26:18;;;;;;;6.50;4.30;;;12.90;99.90;;;-141.84;70.71;18395.50;5110348;28;20306;-53
2022/05/13 03:28:47;;;;;;;5.47;4.47;;;12.90;99.90;;;-141.84;72.18;18379.25;5110643;28;20241;-52
2022/05/13 03:31:17;;;;;;;7.33;4.40;;;12.80;99.90;;;-141.84;72.85;18383.31;5109938;28;20759;-54
2022/05/13 03:33:45;;;;;;;8.33;4.87;;;12.80;99.90;;;-141.84;72.87;18393.47;5110715;28;20196;-51
2022/05/13 03:36:14;;;;;;;5.10;4.60;;;12.80;99.90;;;-141.84;73.07;18358.94;5110308;28;20246;-55
2022/05/13 03:38:42;;;;;;;6.07;4.70;;;12.80;99.90;;;-141.84;73.53;18371.13;5110262;28;20648;-56
2022/05/13 03:41:12;;;;;;;7.27;4.53;;;12.80;99.90;;;-141.84;74.83;18346.75;5110736;28;20314;-51
2022/05/13 03:43:40;;;;;;;6.60;4.53;;;12.80;99.90;;;-141.84;74.40;18360.97;5110223;28;20714;-56
2022/05/13 03:46:08;;;;;;;6.57;4.77;;;12.80;99.90;;;-141.84;74.95;18344.72;5110784;28;20311;-49
2022/05/13 03:48:38;;;;;;;6.90;4.23;;;12.80;99.90;;;-141.84;75.68;18302.06;5110528;28;20209;-53
2022/05/13 03:51:06;;;;;;;4.70;4.03;;;12.70;99.90;;;-141.84;75.91;18304.09;5110464;28;20780;-51
2022/05/13 03:53:34;;;;;;;5.67;4.43;;;12.70;99.90;;;-141.84;75.57;18326.44;5110010;28;20219;-54
2022/05/13 03:56:02;;;;;;;5.33;4.47;;;12.70;99.90;;;-141.84;75.40;18304.09;5110211;28;20227;-53
2022/05/13 03:58:30;;;;;;;6.27;5.00;;;12.80;99.90;;;-141.84;74.54;18352.84;5109703;28;20608;-53
2022/05/13 04:00:59;;;;;;;5.10;4.60;;;12.90;99.90;;;-141.84;73.89;18350.81;5110955;28;20606;-55
2022/05/13 04:03:27;;;;;;;5.57;4.93;;;13.00;99.90;;;-141.84;74.38;18330.50;5107425;28;20694;-54
2022/05/13 04:08:59;;;;;;;8.43;5.40;;;13.20;99.90;;;-141.84;73.41;18383.31;5046758;28;20332;-54
2022/05/13 04:11:34;;;;;;;5.73;4.63;;;13.30;99.90;;;-141.84;73.38;18334.56;5098107;28;20239;-53
2022/05/13 04:16:47;;;;;;;6.17;5.37;;;13.30;99.90;;;-141.84;72.13;18371.13;5110160;28;20313;-53
2022/05/13 04:19:15;;;;;;;6.80;6.10;;;13.30;99.90;;;-141.84;71.45;18395.50;5110072;28;20210;-50
2022/05/13 04:21:46;;;;;;;7.80;5.30;;;13.30;99.90;;;-141.84;71.63;18421.91;5110821;28;20195;-56
2022/05/13 04:24:19;;;;;;;6.20;5.60;;;13.30;99.90;;;-141.84;70.60;18415.81;5109492;28;20223;-54
2022/05/13 04:26:48;;;;;;;7.13;5.70;;;13.40;99.90;;;-141.84;70.17;18401.59;5103673;28;20598;-55
2022/05/13 04:29:16;;;;;;;7.37;6.00;;;13.40;99.90;;;-141.84;69.41;18417.84;5092892;28;20243;-52
2022/05/13 04:31:44;;;;;;;7.23;6.40;;;13.50;99.90;;;-141.84;67.48;18456.47;5093538;28;20307;-56
2022/05/13 04:34:13;;;;;;;6.87;6.17;;;13.60;99.90;;;-141.84;67.36;18503.19;5095278;28;20203;-53
2022/05/13 04:36:41;;;;;;;7.90;6.23;;;13.60;99.90;;;-141.84;65.61;18513.34;5113863;28;20235;-55
2022/05/13 04:39:11;;;;;;;6.80;5.80;;;13.60;99.90;;;-141.84;64.95;18527.56;5112847;28;20238;-52
2022/05/13 04:44:25;;;;;;;7.40;5.90;;;13.80;99.90;;;-141.84;63.99;18537.72;5112997;28;20314;-54
2022/05/13 04:46:53;;;;;;;7.10;6.17;;;13.90;99.90;;;-141.84;63.58;18545.84;5113232;28;20227;-53
2022/05/13 04:49:21;;;;;;;6.43;5.37;;;13.80;99.90;;;-141.84;63.76;18560.06;5112712;28;20298;-54
2022/05/13 04:51:54;;;;;;;6.10;5.57;;;13.90;99.90;;;-141.84;64.46;18535.69;5114164;28;20282;-51
2022/05/13 04:54:24;;;;;;;5.50;5.00;;;13.90;99.90;;;-141.84;61.62;18641.34;5112669;28;20389;-52
2022/05/13 04:56:52;;;;;;;5.45;4.70;;;14.30;99.90;;;-141.84;55.22;18852.66;5112901;28;20714;-54
2022/05/13 04:59:20;;;;;;;5.72;5.20;;;15.50;99.90;;;-141.84;49.14;19118.84;5112574;28;20223;-51
2022/05/13 05:01:48;;;;;;;7.50;4.80;;;16.20;99.90;;;-141.84;46.48;19301.72;5112901;28;20227;-52
2022/05/13 05:04:16;;;;;;;11.85;4.60;;;16.90;99.90;;;-141.84;44.06;19460.22;5107511;28;20226;-54
2022/05/13 05:06:44;;;;;;;6.00;4.50;;;17.70;99.90;;;-141.84;41.61;19604.50;5113300;28;20231;-56
2022/05/13 05:09:12;;;;;;;6.05;4.60;;;18.10;99.90;;;-141.84;40.64;19665.47;5112441;28;20338;-55
2022/05/13 05:11:41;;;;;;;5.78;4.10;;;18.30;99.90;;;-141.84;39.84;19710.19;5112794;28;20667;-54
2022/05/13 05:14:09;;;;;;;7.05;4.32;;;18.80;99.90;;;-141.84;41.03;19604.50;5112779;28;20222;-54
2022/05/13 05:16:42;;;;;;;7.38;4.55;;;18.60;99.90;;;-141.84;42.25;19565.91;5112903;28;20271;-55
2022/05/13 05:19:12;;;;;;;5.22;4.72;;;18.40;99.90;;;-141.84;43.92;19350.50;5112861;28;20200;-55
2022/05/13 05:21:40;;;;;;;5.72;4.70;;;17.90;99.90;;;-141.84;46.57;19246.84;5113759;28;20199;-56
2022/05/13 05:24:08;;;;;;;5.13;4.63;;;17.50;99.90;;;-141.84;47.43;19224.50;5111918;28;20694;-53
2022/05/13 05:26:36;;;;;;;10.15;5.03;;;17.20;99.90;;;-141.84;48.52;19171.66;5112344;28;20809;-53
2022/05/13 05:29:06;;;;;;;6.18;4.60;;;16.90;99.90;;;-141.84;49.12;19108.69;5112694;28;20261;-56
2022/05/13 05:31:33;;;;;;;6.05;4.60;;;16.80;99.90;;;-141.84;48.98;19120.88;5112190;28;20219;-53
2022/05/13 05:34:02;;;;;;;6.65;5.07;;;16.70;99.90;;;-141.84;49.40;19104.59;5112601;28;20286;-54
2022/05/13 05:36:30;;;;;;;8.93;4.82;;;16.60;99.90;;;-141.84;50.06;19100.53;5091727;28;20311;-55
2022/05/13 05:38:58;;;;;;;6.60;4.68;;;16.60;99.90;;;-141.84;51.49;19015.19;5091720;28;20314;-55
2022/05/13 05:41:26;;;;;;;6.38;5.05;;;16.50;99.90;;;-141.84;52.07;18978.63;5091587;28;20581;-53
2022/05/13 05:43:54;;;;;;;6.32;4.55;;;16.30;99.90;;;-141.84;52.04;19009.09;5092268;28;20315;-55
2022/05/13 05:46:23;;;;;;;7.10;4.70;;;16.30;99.90;;;-141.84;51.07;19011.13;5093382;28;20208;-56
2022/05/13 05:48:51;;;;;;;10.48;5.68;;;16.30;99.90;;;-141.84;51.09;19025.38;5110531;28;20217;-56
2022/05/13 05:51:20;;;;;;;8.32;5.22;;;16.30;99.90;;;-141.84;50.85;19013.16;5111799;28;20301;-57
2022/05/13 05:59:19;;;;;;;10.98;5.55;;;16.60;99.90;;;-141.84;50.19;19066.00;5108689;28;20735;-55
2022/05/13 06:01:48;;;;;;;9.55;5.72;;;16.50;99.90;;;-141.84;49.91;19074.13;5111811;28;20653;-55
2022/05/13 06:04:20;;;;;;;8.70;5.68;;;16.70;99.90;;;-141.84;49.89;19084.28;5111489;28;20212;-59
2022/05/13 06:06:48;;;;;;;6.90;5.07;;;16.80;99.90;;;-141.84;49.64;19108.69;5112319;28;20210;-54
2022/05/13 06:09:16;;;;;;;7.72;4.70;;;16.90;99.90;;;-141.84;49.45;19114.78;5111412;28;20778;-55
2022/05/13 06:11:44;;;;;;;8.35;4.93;;;17.00;99.90;;;-141.84;49.29;19131.03;5111345;28;20223;-55
2022/05/13 06:14:12;;;;;;;7.90;4.43;;;17.00;99.90;;;-141.84;50.03;19102.56;5111749;28;20219;-55
2022/05/13 06:16:40;;;;;;;7.55;4.40;;;17.00;99.90;;;-141.84;49.26;19139.16;5111382;28;20242;-51
2022/05/13 06:19:10;;;;;;;8.88;4.47;;;16.90;99.90;;;-141.84;49.95;19088.34;5111220;28;20598;-57
2022/05/13 06:21:38;;;;;;;7.00;4.70;;;17.10;99.90;;;-141.84;49.02;19114.78;5111801;28;20689;-56
2022/05/13 06:24:07;;;;;;;7.60;4.55;;;17.30;99.90;;;-141.84;49.20;19118.84;5111679;28;20230;-53
2022/05/13 06:26:36;;;;;;;8.10;5.30;;;17.30;99.90;;;-141.84;49.34;19135.09;5111224;28;20299;-57
2022/05/13 06:29:05;;;;;;;7.00;4.80;;;17.40;99.90;;;-141.84;48.86;19147.28;5111357;28;20250;-52
2022/05/13 06:31:34;;;;;;;5.82;5.22;;;17.50;99.90;;;-141.84;47.90;19163.53;5111182;28;20310;-54
2022/05/13 06:34:04;;;;;;;6.78;5.05;;;17.70;99.90;;;-141.84;47.91;19181.81;5111408;28;20286;-57
2022/05/13 06:36:34;;;;;;;10.43;5.95;;;17.90;99.90;;;-141.84;47.74;19200.13;5091174;28;20220;-54
2022/05/13 06:39:05;;;;;;;8.50;5.80;;;17.90;99.90;;;-141.84;47.28;19187.91;5106233;28;20309;-53
2022/05/13 06:41:37;;;;;;;7.57;5.47;;;18.00;99.90;;;-141.84;47.76;19161.50;5110809;28;20231;-54
2022/05/13 06:44:06;;;;;;;7.20;5.20;;;18.00;99.90;;;-141.84;47.05;19246.84;5111523;28;20250;-53
2022/05/13 06:46:35;;;;;;;7.90;4.93;;;18.20;99.90;;;-141.84;47.57;19212.31;5110720;28;20545;-53
2022/05/13 06:49:04;;;;;;;6.70;4.90;;;18.20;99.90;;;-141.84;47.39;19216.38;5110917;28;20199;-54
2022/05/13 06:51:34;;;;;;;6.05;4.88;;;18.40;99.90;;;-141.84;46.98;19228.56;5111139;28;20714;-54
2022/05/13 06:54:06;;;;;;;7.53;5.70;;;18.40;99.90;;;-141.84;47.15;19222.47;5111202;28;20254;-55
2022/05/13 06:56:37;;;;;;;6.65;5.22;;;18.50;99.90;;;-141.84;46.50;19281.41;5110971;28;20223;-52
2022/05/13 06:59:05;;;;;;;8.30;4.80;;;18.60;99.90;;;-141.84;47.42;19275.31;5110665;28;20223;-51
2022/05/13 07:01:39;;;;;;;7.93;5.22;;;18.70;99.90;;;-141.84;47.65;19242.78;5110715;28;20709;-54
2022/05/13 07:04:07;;;;;;;5.38;4.88;;;18.60;99.90;;;-141.84;48.09;19212.31;5104514;28;20218;-55
2022/05/13 07:06:37;;;;;;;9.05;4.60;;;18.60;99.90;;;-141.84;47.93;19222.47;5090807;28;20200;-53
2022/05/13 07:09:05;;;;;;;6.25;4.10;;;18.60;99.90;;;-141.84;46.90;19248.88;5090147;28;20224;-56
2022/05/13 07:11:33;;;;;;;6.63;4.60;;;18.70;99.90;;;-141.84;45.70;19313.91;5090314;28;20300;-55
2022/05/13 07:14:01;;;;;;;4.72;4.32;;;18.70;99.90;;;-141.84;45.49;19328.13;5090922;28;20685;-55
2022/05/13 07:16:29;;;;;;;8.05;4.90;;;18.80;99.90;;;-141.84;44.94;19322.03;5105697;28;20306;-55
2022/05/13 07:19:04;;;;;;;8.05;4.47;;;18.90;99.90;;;-141.84;44.64;19401.28;5111400;28;20247;-55
2022/05/13 07:21:32;;;;;;;6.55;4.40;;;19.10;99.90;;;-141.84;44.79;19409.41;5110833;28;20207;-55
2022/05/13 07:24:02;;;;;;;4.50;4.03;;;19.20;99.90;;;-141.84;44.88;19393.16;5110784;28;20718;-55
2022/05/13 07:26:30;;;;;;;6.10;4.20;;;19.30;99.90;;;-141.84;42.13;19427.72;5110556;28;20227;-54
2022/05/13 07:28:58;;;;;;;8.40;4.32;;;19.30;99.90;;;-141.84;43.06;19439.91;5110244;28;20773;-53
2022/05/13 07:31:26;;;;;;;6.13;3.88;;;19.20;99.90;;;-141.84;42.98;19423.66;5110508;28;20305;-56
2022/05/13 07:33:54;;;;;;;6.72;3.92;;;19.00;99.90;;;-141.84;43.23;19403.31;5111082;28;20221;-56
2022/05/13 07:36:22;;;;;;;6.50;4.10;;;19.00;99.90;;;-141.84;42.59;19435.84;5090035;28;20227;-52
2022/05/13 07:41:41;;;;;;;5.18;3.45;;;19.10;99.90;;;-141.84;42.51;19427.72;5090282;28;20307;-57
2022/05/13 07:44:10;;;;;;;3.95;3.15;;;19.20;99.90;;;-141.84;41.36;19494.78;5090318;28;20231;-54
2022/05/13 07:46:39;;;;;;;7.45;3.40;;;19.30;99.90;;;-141.84;40.86;19478.50;5089956;28;20230;-54
2022/05/13 07:49:08;;;;;;;5.53;3.10;;;19.30;99.90;;;-141.84;41.42;19460.22;5089788;28;20290;-53
2022/05/13 07:51:36;;;;;;;7.38;4.00;;;19.30;99.90;;;-141.84;40.93;19519.16;5090609;28;20206;-53
2022/05/13 07:54:04;;;;;;;6.45;3.30;;;19.40;99.90;;;-141.84;40.91;19511.03;5090096;28;20326;-53
2022/05/13 07:56:32;;;;;;;6.80;3.50;;;19.50;99.90;;;-141.84;40.33;19574.03;5089904;28;20224;-55
2022/05/13 07:59:02;;;;;;;6.18;3.92;;;19.70;99.90;;;-141.84;39.64;19582.16;5089728;28;20600;-52
2022/05/13 08:01:30;;;;;;;8.50;3.50;;;19.80;99.90;;;-141.84;39.78;19606.53;5098106;28;20255;-57
2022/05/13 08:03:59;;;;;;;5.93;3.58;;;19.80;99.90;;;-141.84;40.60;19602.47;5114256;28;20223;-57
2022/05/13 08:06:27;;;;;;;6.53;3.67;;;19.90;99.90;;;-141.84;39.57;19594.34;5113515;28;20284;-56
2022/05/13 08:08:58;;;;;;;5.25;3.25;;;19.90;99.90;;;-141.84;38.97;19657.34;5113564;28;20318;-55
2022/05/13 08:11:29;;;;;;;3.10;2.80;;;20.00;99.90;;;-141.84;39.02;19677.66;5112293;28;20225;-51
2022/05/13 08:13:57;;;;;;;6.65;3.33;;;20.10;99.90;;;-141.84;39.21;19673.59;5113456;28;20223;-50
2022/05/13 08:16:30;;;;;;;6.13;3.22;;;20.30;99.90;;;-141.84;38.03;19750.84;5113354;28;20257;-52
2022/05/13 08:19:02;;;;;;;5.45;3.40;;;20.50;99.90;;;-141.84;37.99;19773.19;5114333;28;20227;-53
2022/05/13 08:21:30;;;;;;;7.00;3.03;;;20.50;99.90;;;-141.84;38.00;19758.97;5113568;28;20239;-52
2022/05/13 08:24:01;;;;;;;5.53;3.17;;;20.60;99.90;;;-141.84;38.15;19704.09;5113570;28;20230;-51
2022/05/13 08:26:29;;;;;;;5.65;3.00;;;20.50;99.90;;;-141.84;37.83;19698.00;5113635;28;20710;-53
2022/05/13 08:28:57;;;;;;;5.63;2.90;;;20.50;99.90;;;-141.84;38.52;19726.44;5113807;28;20305;-53
2022/05/13 08:31:25;;;;;;;9.05;3.70;;;20.30;99.90;;;-141.84;38.49;19702.06;5113231;28;20734;-55
2022/05/13 08:33:55;;;;;;;4.90;2.97;;;20.40;99.90;;;-141.84;38.51;19704.09;5114259;28;20206;-48
2022/05/13 08:36:23;;;;;;;5.10;3.22;;;20.40;99.90;;;-141.84;38.78;19736.59;5092966;28;20248;-53
2022/05/13 08:38:51;;;;;;;7.30;3.58;;;20.50;99.90;;;-141.84;38.40;19724.41;5092596;28;20242;-61
2022/05/13 08:41:34;;;;;;;8.30;3.75;;;20.60;99.90;;;-141.84;38.20;19791.47;5092621;28;20220;-60
2022/05/13 08:44:08;;;;;;;7.88;3.95;;;20.80;99.90;;;-141.84;38.22;19765.06;5092951;28;20247;-60
2022/05/13 08:46:41;;;;;;;6.47;3.65;;;20.90;99.90;;;-141.84;37.57;19785.38;5092958;28;20224;-61
2022/05/13 08:49:41;;;;;;;4.28;3.15;;;21.00;99.90;;;-141.84;38.22;19752.88;5092428;28;20238;-62
2022/05/13 08:55:11;;;;;;;4.97;3.30;;;20.80;99.90;;;-141.84;38.41;19736.59;5114024;28;20635;-61
2022/05/13 08:57:45;;;;;;;9.43;3.45;;;20.70;99.90;;;-141.84;38.86;19738.66;5114076;28;20226;-62
2022/05/13 09:00:23;;;;;;;5.45;3.60;;;20.80;99.90;;;-141.84;38.40;19667.50;5113705;28;20674;-61
2022/05/13 09:03:05;;;;;;;5.65;3.30;;;20.40;99.90;;;-141.84;38.94;19665.47;5114086;28;20190;-64
2022/05/13 09:05:45;;;;;;;6.47;3.35;;;20.30;99.90;;;-141.84;39.80;19667.50;5113862;28;20302;-65
2022/05/13 09:08:13;;;;;;;5.30;3.22;;;20.30;99.90;;;-141.84;39.69;19667.50;5114077;28;20278;-62
2022/05/13 09:10:59;;;;;;;4.45;3.00;;;20.40;99.90;;;-141.84;39.37;19718.31;5113667;28;20758;-61
2022/05/13 09:13:35;;;;;;;5.82;2.58;;;20.50;99.90;;;-141.84;38.00;19716.28;5113082;28;20711;-62
2022/05/13 09:16:09;;;;;;;7.18;2.65;;;20.40;99.90;;;-141.84;38.18;19712.22;5113500;28;20209;-62
2022/05/13 09:18:50;;;;;;;4.60;2.33;;;20.50;99.90;;;-141.84;38.12;19736.59;5113826;28;20233;-61
2022/05/13 09:21:22;;;;;;;5.35;2.85;;;20.60;99.90;;;-141.84;37.69;19738.66;5113812;28;20266;-62
2022/05/13 09:23:50;;;;;;;3.72;2.58;;;20.70;99.90;;;-141.84;38.59;19702.06;5113181;28;20278;-64
2022/05/13 09:26:21;;;;;;;7.60;3.10;;;20.60;99.90;;;-141.84;39.61;19655.31;5113156;28;20702;-64
2022/05/13 09:29:08;;;;;;;6.55;3.38;;;20.40;99.90;;;-141.84;40.00;19561.84;5113567;28;20193;-62
2022/05/13 09:31:40;;;;;;;5.72;3.53;;;20.20;99.90;;;-141.84;40.73;19565.91;5113013;28;20641;-60
2022/05/13 09:34:34;;;;;;;6.60;3.90;;;19.80;99.90;;;-141.84;40.74;19547.59;5113356;28;20192;-60
2022/05/13 09:37:09;;;;;;;7.80;3.42;;;19.70;99.90;;;-141.84;39.92;19594.34;5112822;28;20199;-66
2022/05/13 09:39:43;;;;;;;7.18;3.30;;;19.70;99.90;;;-141.84;39.26;19637.03;5113141;28;20183;-65
2022/05/13 09:42:24;;;;;;;4.35;3.28;;;19.80;99.90;;;-141.84;39.57;19596.38;5113411;28;20191;-64
2022/05/13 09:45:18;;;;;;;4.28;2.97;;;19.80;99.90;;;-141.84;40.02;19592.31;5113057;28;20276;-64
2022/05/13 09:47:59;;;;;;;6.68;3.28;;;19.80;99.90;;;-141.84;39.49;19665.47;5112758;28;20249;-62
2022/05/13 09:50:31;;;;;;;7.22;3.72;;;20.00;99.90;;;-141.84;38.30;19728.47;5112912;28;20654;-61
2022/05/13 09:53:06;;;;;;;5.75;3.25;;;20.40;99.90;;;-141.84;38.39;19740.69;5113096;28;20389;-61
2022/05/13 09:55:38;;;;;;;7.70;3.00;;;20.50;99.90;;;-141.84;37.96;19728.47;5112894;28;20190;-61
2022/05/13 09:58:17;;;;;;;5.38;3.30;;;20.60;99.90;;;-141.84;38.19;19695.97;5112636;28;20188;-62
2022/05/13 10:00:49;;;;;;;4.07;3.00;;;20.50;99.90;;;-141.84;38.80;19630.94;5112622;28;20262;-62
2022/05/13 10:03:22;;;;;;;6.20;2.78;;;20.30;99.90;;;-141.84;38.99;19635.00;5112746;28;20274;-64
2022/05/13 10:06:04;;;;;;;3.95;2.80;;;20.00;99.90;;;-141.84;38.53;19710.19;5112461;28;20207;-62
2022/05/13 10:08:50;;;;;;;8.57;3.33;;;20.10;99.90;;;-141.84;38.06;19736.59;5112570;28;20224;-63
2022/05/13 10:14:28;;;;;;;3.78;2.33;;;20.70;99.90;;;-141.84;36.97;19870.75;5112325;28;20187;-60
2022/05/13 10:17:05;;;;;;;3.55;2.60;;;20.90;99.90;;;-141.84;35.89;19870.75;5112417;28;20207;-61
2022/05/13 10:19:41;;;;;;;5.40;2.42;;;20.90;99.90;;;-141.84;36.03;19785.38;5112562;28;20183;-60
2022/05/13 10:22:34;;;;;;;4.85;2.60;;;20.70;99.90;;;-141.84;36.71;19791.47;5112473;28;20283;-62
2022/05/13 10:25:10;;;;;;;4.57;2.60;;;20.60;99.90;;;-141.84;36.80;19791.47;5111618;28;20219;-62
2022/05/13 10:27:46;;;;;;;5.22;2.58;;;20.60;99.90;;;-141.84;36.50;19769.13;5111959;28;20722;-63
2022/05/13 10:30:32;;;;;;;3.35;2.67;;;20.50;99.90;;;-141.84;37.49;19754.91;5112170;28;20245;-62
2022/05/13 10:33:07;;;;;;;3.88;2.50;;;20.30;99.90;;;-141.84;36.78;19738.66;5112425;28;20187;-62
2022/05/13 10:35:53;;;;;;;3.20;2.35;;;20.30;99.90;;;-141.84;37.12;19805.72;5111795;28;20695;-60
2022/05/13 10:38:30;;;;;;;5.13;2.33;;;20.40;99.90;;;-141.84;36.14;19872.78;5112373;28;20266;-62
2022/05/13 10:41:20;;;;;;;3.97;1.90;;;20.70;99.90;;;-141.84;36.19;19866.69;5112292;28;20183;-62
2022/05/13 10:43:58;;;;;;;6.28;2.40;;;20.80;99.90;;;-141.84;35.04;19899.19;5111645;28;20643;-61
2022/05/13 10:46:37;;;;;;;5.97;2.13;;;20.80;99.90;;;-141.84;34.88;19960.16;5112019;28;20302;-59